Savage, Minnesota
Current Conditions -  °F | °C
As of 11:53 AM on Friday 21 Nov 2014 (Local Time) from KFCM Reporting Station
Overcast Overcast  
Wind Chill: 16°   Ceiling: 12000
Heat Index: 28°   Visibility: 10mi
Dew Point: 17°   Wind: 16mph
Humidity: 63%   Direction: 200°SSW
Pressure: 30.09"   Gusts: 24mph
Location:  44.76°N, 93.35°W
Report Text: KFCM 211753Z 20014G21KT 10SM OVC120 M02/M08 A3009 RMK AO2 SLP208 T10221083 11022 21144 58024
Loading
Personal Weather Stations






























Interactive Weather Map New forecast layout! Learn more

10-Day Weather Forecast

Advertisements
Track Severe Weather on mobile